Time;durP1;ratioP1;P1;durP2;ratioP2;P2;SDS_P1;SDS_P2;PMS_P1;PMS_P2;Temp;Humidity;BMP_temperature;BMP_pressure;BME280_temperature;BME280_humidity;BME280_pressure;Samples;Min_cycle;Max_cycle;Signal;HPM_P1;HPM_P2
2023/08/10 00:00:50;;;;;;;2.42;1.27;;;15.30;99.90;;;14.66;100.00;98195.16;5004670;28;20077;-73
2023/08/10 00:03:17;;;;;;;2.47;0.98;;;15.40;99.90;;;14.67;100.00;98191.66;4998607;28;20046;-72
2023/08/10 00:05:44;;;;;;;3.47;1.13;;;15.40;99.90;;;14.68;100.00;98190.72;5002182;28;20074;-72
2023/08/10 00:08:12;;;;;;;4.57;1.00;;;15.40;99.90;;;14.62;100.00;98191.88;4984512;28;20372;-73
2023/08/10 00:10:40;;;;;;;2.92;1.00;;;15.40;99.90;;;14.53;100.00;98194.03;4984164;28;20056;-73
2023/08/10 00:13:08;;;;;;;3.47;1.00;;;15.40;99.90;;;14.48;100.00;98182.97;5003098;28;20042;-72
2023/08/10 00:15:36;;;;;;;2.50;1.00;;;15.40;99.90;;;14.44;100.00;98179.69;4982914;28;20077;-73
2023/08/10 00:18:07;;;;;;;3.30;0.80;;;15.30;99.90;;;14.54;100.00;98178.31;4987100;28;20525;-73
2023/08/10 00:20:34;;;;;;;2.20;0.80;;;15.40;99.90;;;14.52;100.00;98174.91;5016511;28;20073;-73
2023/08/10 00:23:04;;;;;;;3.67;1.00;;;15.30;99.90;;;14.44;100.00;98177.91;4988623;28;20142;-72
2023/08/10 00:25:34;;;;;;;1.92;0.90;;;15.30;99.90;;;14.46;100.00;98177.84;5003825;28;20062;-72
2023/08/10 00:28:01;;;;;;;2.53;0.90;;;15.20;99.90;;;14.33;100.00;98177.59;4999967;28;20070;-73
2023/08/10 00:30:29;;;;;;;2.28;1.10;;;15.20;99.90;;;14.22;100.00;98185.09;4995684;28;20073;-73
2023/08/10 00:32:57;;;;;;;3.60;1.17;;;15.10;99.90;;;14.23;100.00;98181.53;4999953;28;20050;-72
2023/08/10 00:35:25;;;;;;;3.70;1.10;;;15.10;99.90;;;14.04;100.00;98176.34;5000701;28;20046;-72
2023/08/10 00:37:53;;;;;;;1.85;1.05;;;15.00;99.90;;;13.91;100.00;98183.94;4999330;28;20148;-72
2023/08/10 00:40:23;;;;;;;4.10;1.08;;;14.90;99.90;;;13.73;100.00;98180.41;5013016;28;20086;-73
2023/08/10 00:42:51;;;;;;;5.85;1.63;;;14.80;99.90;;;13.55;100.00;98187.28;4998140;28;20052;-71
2023/08/10 00:45:21;;;;;;;3.45;1.02;;;14.70;99.90;;;13.61;100.00;98193.97;4997259;28;20057;-72
2023/08/10 00:47:52;;;;;;;;;;;14.60;99.90;;;13.60;100.00;98194.91;4997159;28;20061;-72
2023/08/10 00:50:21;;;;;;;2.88;1.00;;;14.60;99.90;;;13.56;100.00;98194.19;4998600;28;19956;-72
2023/08/10 00:52:49;;;;;;;4.65;1.20;;;14.50;99.90;;;13.66;100.00;98197.25;4987098;28;20470;-72
2023/08/10 00:55:17;;;;;;;4.07;1.00;;;14.60;99.90;;;13.73;100.00;98193.44;4998600;28;20719;-72
2023/08/10 00:57:46;;;;;;;1.50;0.80;;;14.60;99.90;;;13.81;100.00;98193.09;5014796;28;20050;-72
2023/08/10 01:00:19;;;;;;;7.22;1.27;;;14.60;99.90;;;13.72;100.00;98189.13;5015690;28;20049;-72
2023/08/10 01:02:46;;;;;;;1.80;0.73;;;14.60;99.90;;;13.67;100.00;98183.28;5015001;28;20050;-73
2023/08/10 01:05:14;;;;;;;2.13;0.95;;;14.50;99.90;;;13.60;100.00;98179.25;5000665;28;20104;-72
2023/08/10 01:08:17;;;;;;;2.28;1.15;;;14.50;99.90;;;13.51;100.00;98185.72;4999348;28;20052;-72
2023/08/10 01:11:06;;;;;;;1.90;0.90;;;14.40;99.90;;;13.50;100.00;98181.44;4997411;28;20431;-72
2023/08/10 01:14:19;;;;;;;3.17;1.30;;;14.40;99.90;;;13.38;100.00;98188.03;5014274;28;20057;-72
2023/08/10 01:16:52;;;;;;;2.80;1.20;;;14.40;99.90;;;13.37;100.00;98181.13;4988140;28;20053;-72
2023/08/10 01:19:38;;;;;;;4.07;1.27;;;14.30;99.90;;;13.41;100.00;98188.81;5005802;28;20498;-72
2023/08/10 01:22:28;;;;;;;5.22;1.00;;;14.30;99.90;;;13.35;100.00;98182.94;4988646;28;20042;-72
2023/08/10 01:25:05;;;;;;;5.30;0.98;;;14.20;99.90;;;13.36;100.00;98184.66;5005664;28;20053;-72
2023/08/10 01:27:37;;;;;;;2.35;1.02;;;14.30;99.90;;;13.34;100.00;98180.41;5002441;28;20056;-72
2023/08/10 01:30:07;;;;;;;3.72;1.10;;;14.20;99.90;;;13.15;100.00;98173.34;5004134;28;20041;-72
2023/08/10 01:32:36;;;;;;;6.00;1.23;;;14.20;99.90;;;13.05;100.00;98173.84;4993079;28;20077;-72
2023/08/10 01:35:05;;;;;;;3.42;1.02;;;14.10;99.90;;;12.93;100.00;98180.41;4991970;28;20058;-71
2023/08/10 01:37:34;;;;;;;9.73;1.38;;;14.00;99.90;;;12.78;100.00;98174.09;5002765;28;20056;-72
2023/08/10 01:40:08;;;;;;;5.30;1.58;;;13.90;99.90;;;12.64;100.00;98187.69;5004501;28;20056;-73
2023/08/10 01:42:36;;;;;;;5.90;1.40;;;13.80;99.90;;;12.58;100.00;98190.53;5002717;28;20544;-72
2023/08/10 01:45:08;;;;;;;2.08;0.80;;;13.70;99.90;;;12.60;100.00;98193.94;5003078;28;20046;-73
2023/08/10 01:48:09;;;;;;;5.88;1.38;;;13.70;99.90;;;12.51;100.00;98197.75;5002937;28;20053;-72
2023/08/10 01:50:41;;;;;;;3.00;1.33;;;13.60;99.90;;;12.49;100.00;98196.13;5001011;28;20068;-72
2023/08/10 01:53:28;;;;;;;3.45;1.42;;;13.50;99.90;;;12.45;100.00;98205.84;5005764;28;20045;-72
2023/08/10 01:55:57;;;;;;;5.10;1.20;;;13.50;99.90;;;12.38;100.00;98219.13;5001376;28;20068;-73
2023/08/10 01:58:25;;;;;;;5.43;1.15;;;13.40;99.90;;;12.22;100.00;98218.88;4997830;28;20050;-72
2023/08/10 02:00:54;;;;;;;2.22;1.10;;;13.30;99.90;;;12.30;100.00;98222.91;5019502;28;20054;-72
2023/08/10 02:03:21;;;;;;;2.72;1.17;;;13.30;99.90;;;12.24;100.00;98222.28;5002921;28;20056;-73
2023/08/10 02:05:49;;;;;;;5.15;1.30;;;13.20;99.90;;;12.13;100.00;98225.28;5016675;28;20107;-71
2023/08/10 02:08:17;;;;;;;6.88;1.23;;;13.20;99.90;;;12.15;100.00;98226.09;5003329;28;20141;-72
2023/08/10 02:10:45;;;;;;;3.08;1.27;;;13.10;99.90;;;12.05;100.00;98217.78;5003998;28;20042;-72
2023/08/10 02:13:16;;;;;;;3.65;1.02;;;13.10;99.90;;;12.14;100.00;98222.63;4987527;28;20046;-73
2023/08/10 02:15:44;;;;;;;3.17;1.00;;;13.10;99.90;;;12.09;100.00;98214.16;5016515;28;20049;-72
2023/08/10 02:18:12;;;;;;;7.95;1.10;;;13.00;99.90;;;12.03;100.00;98216.16;5004555;28;20058;-72
2023/08/10 02:20:40;;;;;;;2.85;0.95;;;13.00;99.90;;;11.97;100.00;98214.63;5003363;28;20058;-73
2023/08/10 02:23:09;;;;;;;6.47;1.20;;;13.00;99.90;;;11.85;100.00;98217.66;4990763;28;20068;-74
2023/08/10 02:25:36;;;;;;;6.75;1.13;;;12.90;99.90;;;11.99;100.00;98212.81;4987870;28;20080;-72
2023/08/10 02:28:04;;;;;;;2.00;1.05;;;12.90;99.90;;;11.95;100.00;98218.19;5004994;28;20065;-72
2023/08/10 02:30:32;;;;;;;7.80;1.30;;;12.90;99.90;;;11.94;100.00;98219.94;5000571;28;20101;-72
2023/08/10 02:33:00;;;;;;;2.40;1.10;;;12.90;99.90;;;11.68;100.00;98221.75;5003271;28;20116;-73
2023/08/10 02:35:29;;;;;;;2.20;1.10;;;12.80;99.90;;;11.64;100.00;98219.31;4974669;28;20058;-73
2023/08/10 02:37:58;;;;;;;3.17;1.00;;;12.70;99.90;;;11.66;100.00;98218.34;5006620;28;20129;-73
2023/08/10 02:40:26;;;;;;;4.32;1.10;;;12.70;99.90;;;11.66;100.00;98212.31;4990582;28;20136;-73
2023/08/10 02:42:54;;;;;;;3.47;1.00;;;12.60;99.90;;;11.68;100.00;98213.09;5000619;28;20049;-72
2023/08/10 02:45:22;;;;;;;3.72;1.00;;;12.60;99.90;;;11.64;100.00;98217.56;5000387;28;20058;-72
2023/08/10 02:47:49;;;;;;;3.65;1.10;;;12.60;99.90;;;11.61;100.00;98217.69;5001298;28;20054;-72
2023/08/10 02:50:19;;;;;;;3.97;1.45;;;12.60;99.90;;;11.74;100.00;98215.47;5001326;28;20606;-73
2023/08/10 02:52:47;;;;;;;3.50;1.30;;;12.60;99.90;;;11.65;100.00;98216.63;5002622;28;20054;-72
2023/08/10 02:55:17;;;;;;;3.22;1.50;;;12.60;99.90;;;11.68;100.00;98220.91;5000492;28;20407;-71
2023/08/10 02:57:45;;;;;;;5.40;1.17;;;12.60;99.90;;;11.77;100.00;98219.69;4989229;28;20149;-74
2023/08/10 03:00:13;;;;;;;2.72;1.40;;;12.60;99.90;;;11.86;100.00;98219.34;5002852;28;20064;-72
2023/08/10 03:02:40;;;;;;;3.90;1.30;;;12.70;99.90;;;11.86;100.00;98219.34;5000322;28;20441;-72
2023/08/10 03:05:11;;;;;;;2.60;1.10;;;12.70;99.90;;;11.97;100.00;98213.78;4987337;28;20141;-72
2023/08/10 03:07:38;;;;;;;2.10;1.20;;;12.80;99.90;;;11.89;100.00;98209.72;4996979;28;20056;-73
2023/08/10 03:10:07;;;;;;;4.65;1.10;;;12.80;99.90;;;11.76;100.00;98202.41;4999786;28;20064;-72
2023/08/10 03:12:37;;;;;;;4.50;1.20;;;12.80;99.90;;;11.58;100.00;98211.72;5001617;28;20049;-72
2023/08/10 03:15:09;;;;;;;2.88;1.25;;;12.70;99.90;;;11.48;100.00;98213.81;5003288;28;20125;-73
2023/08/10 03:17:38;;;;;;;3.60;1.43;;;12.60;99.90;;;11.51;100.00;98211.94;5003331;28;20061;-73
2023/08/10 03:20:16;;;;;;;2.70;1.40;;;12.50;99.90;;;11.52;100.00;98218.84;4982930;28;20052;-72
2023/08/10 03:22:46;;;;;;;2.22;1.27;;;12.50;99.90;;;11.51;100.00;98222.34;4991453;28;20078;-72
2023/08/10 03:25:14;;;;;;;3.03;1.40;;;12.50;99.90;;;11.36;100.00;98216.84;5007450;28;20050;-73
2023/08/10 03:27:43;;;;;;;5.70;1.30;;;12.50;99.90;;;11.37;100.00;98213.34;5001107;28;20050;-73
2023/08/10 03:30:11;;;;;;;4.30;1.48;;;12.40;99.90;;;11.30;100.00;98213.56;4990635;28;20054;-73
2023/08/10 03:32:40;;;;;;;2.90;1.00;;;12.40;99.90;;;11.50;100.00;98204.22;5003310;28;20046;-73
2023/08/10 03:35:08;;;;;;;3.42;1.10;;;12.40;99.90;;;11.49;100.00;98199.91;5010047;28;20045;-73
2023/08/10 03:37:37;;;;;;;4.95;1.23;;;12.40;99.90;;;11.42;100.00;98194.06;4989267;28;20050;-72
2023/08/10 03:40:13;;;;;;;2.15;1.27;;;12.40;99.90;;;11.49;100.00;98199.91;4993678;28;20050;-72
2023/08/10 03:42:40;;;;;;;2.50;0.93;;;12.40;99.90;;;11.53;100.00;98198.91;5003856;28;20054;-73
2023/08/10 03:45:09;;;;;;;2.83;1.40;;;12.40;99.90;;;11.50;100.00;98206.81;5003781;28;20787;-73
2023/08/10 03:47:36;;;;;;;3.63;1.38;;;12.40;99.90;;;11.48;100.00;98206.03;5019059;28;20141;-73
2023/08/10 03:50:05;;;;;;;4.20;1.45;;;12.40;99.90;;;11.54;100.00;98198.00;5003418;28;20061;-73
2023/08/10 03:52:32;;;;;;;4.63;1.20;;;12.50;99.90;;;11.46;100.00;98203.47;4990746;28;20137;-72
2023/08/10 03:55:00;;;;;;;5.15;1.13;;;12.40;99.90;;;11.41;100.00;98199.34;5004713;28;20051;-73
2023/08/10 03:57:27;;;;;;;2.80;1.30;;;12.40;99.90;;;11.41;100.00;98199.34;5001893;28;20062;-72
2023/08/10 03:59:54;;;;;;;5.80;1.48;;;12.40;99.90;;;11.38;100.00;98202.03;5003609;28;20077;-73
2023/08/10 04:02:22;;;;;;;4.97;1.30;;;12.40;99.90;;;11.31;100.00;98206.59;5000602;28;20078;-73
2023/08/10 04:04:49;;;;;;;3.35;1.40;;;12.30;99.90;;;11.25;100.00;98212.03;5001541;28;20140;-73
2023/08/10 04:07:16;;;;;;;4.25;1.50;;;12.30;99.90;;;11.34;100.00;98209.13;4984180;28;20101;-73
2023/08/10 04:09:47;;;;;;;5.35;1.10;;;12.30;99.90;;;11.35;100.00;98212.56;5003505;28;20129;-72
2023/08/10 04:12:15;;;;;;;6.95;1.50;;;12.20;99.90;;;11.27;100.00;98216.28;5002223;28;20074;-73
2023/08/10 04:14:42;;;;;;;3.67;1.10;;;12.30;99.90;;;11.30;100.00;98213.56;4988351;28;20058;-72
2023/08/10 04:17:10;;;;;;;2.60;1.00;;;12.20;99.90;;;11.14;100.00;98220.22;5002488;28;20042;-73
2023/08/10 04:19:37;;;;;;;3.97;1.00;;;12.20;99.90;;;10.93;100.00;98233.94;5001539;28;20077;-73
2023/08/10 04:22:06;;;;;;;1.92;1.15;;;12.20;99.90;;;11.05;100.00;98234.34;5002927;28;20070;-72
2023/08/10 04:24:33;;;;;;;2.38;0.98;;;12.10;99.90;;;10.96;100.00;98236.41;5003302;28;20054;-73
2023/08/10 04:27:05;;;;;;;5.65;1.17;;;12.10;99.90;;;10.94;100.00;98246.84;5004464;28;20472;-72
2023/08/10 04:29:32;;;;;;;2.58;1.27;;;12.00;99.90;;;10.94;100.00;98253.81;5010876;28;20049;-72
2023/08/10 04:32:00;;;;;;;2.67;1.40;;;12.00;99.90;;;10.96;100.00;98255.44;5004364;28;20042;-72
2023/08/10 04:34:34;;;;;;;3.45;1.83;;;12.00;99.90;;;11.06;100.00;98263.78;5002751;28;20467;-75
2023/08/10 04:37:03;;;;;;;3.72;1.05;;;11.90;99.90;;;11.12;100.00;98258.38;5002068;28;20061;-72
2023/08/10 04:39:32;;;;;;;4.80;1.30;;;12.00;99.90;;;11.08;100.00;98257.66;5004230;28;20082;-72
2023/08/10 04:41:59;;;;;;;2.58;1.20;;;12.00;99.90;;;11.14;100.00;98256.56;5000353;28;20475;-75
2023/08/10 04:44:30;;;;;;;3.15;0.98;;;11.90;99.90;;;11.10;100.00;98257.56;5005558;28;20054;-73
2023/08/10 04:46:57;;;;;;;3.92;1.00;;;11.90;99.90;;;11.14;100.00;98258.34;5005815;28;20073;-73
2023/08/10 04:49:26;;;;;;;7.10;0.95;;;11.90;99.90;;;10.99;100.00;98255.38;5002707;28;20049;-73
2023/08/10 04:51:56;;;;;;;1.77;0.95;;;11.90;99.90;;;11.02;100.00;98254.41;4992455;28;20588;-74
2023/08/10 04:54:23;;;;;;;1.92;1.33;;;11.90;99.90;;;11.10;100.00;98248.03;5007900;28;20100;-72
2023/08/10 04:56:50;;;;;;;3.42;1.13;;;12.00;99.90;;;11.21;100.00;98252.88;5003044;28;20053;-72
2023/08/10 04:59:18;;;;;;;2.00;0.90;;;12.00;99.90;;;11.41;100.00;98253.94;5001908;28;20058;-72
2023/08/10 05:01:45;;;;;;;5.80;1.10;;;12.10;99.90;;;11.43;100.00;98250.38;5001781;28;20493;-72
2023/08/10 05:04:14;;;;;;;1.80;0.82;;;12.10;99.90;;;11.61;100.00;98259.28;5002558;28;20046;-73
2023/08/10 05:06:42;;;;;;;2.22;1.10;;;12.20;99.90;;;11.64;100.00;98253.13;5002981;28;20096;-73
2023/08/10 05:09:09;;;;;;;1.70;0.88;;;12.30;99.90;;;11.72;100.00;98253.66;5003052;28;20045;-72
2023/08/10 05:11:36;;;;;;;4.40;1.25;;;12.30;99.90;;;11.77;100.00;98256.97;5015908;28;20157;-73
2023/08/10 05:14:04;;;;;;;2.67;1.23;;;12.40;99.90;;;11.88;100.00;98247.06;5004352;28;20046;-73
2023/08/10 05:16:32;;;;;;;2.22;1.20;;;12.50;99.90;;;11.78;100.00;98252.63;5004250;28;20054;-72
2023/08/10 05:18:59;;;;;;;2.38;1.20;;;12.60;99.90;;;11.80;100.00;98254.25;4996297;28;20058;-70
2023/08/10 05:21:26;;;;;;;2.70;1.20;;;12.60;99.90;;;11.98;100.00;98260.56;4997886;28;20132;-73
2023/08/10 05:23:53;;;;;;;5.05;1.00;;;12.60;99.90;;;12.17;100.00;98254.66;5001586;28;20065;-73
2023/08/10 05:26:20;;;;;;;4.10;1.05;;;12.70;99.90;;;12.39;100.00;98254.69;5012001;28;20116;-73
2023/08/10 05:28:47;;;;;;;4.82;1.20;;;12.80;99.90;;;12.51;100.00;98255.03;5002373;28;20058;-72
2023/08/10 05:31:15;;;;;;;2.97;1.00;;;12.90;99.90;;;12.74;100.00;98248.91;5016208;28;20038;-72
2023/08/10 05:33:42;;;;;;;6.18;1.30;;;13.00;99.90;;;12.86;100.00;98242.34;5003399;28;20082;-72
2023/08/10 05:36:09;;;;;;;2.30;1.23;;;13.20;99.90;;;12.93;100.00;98240.34;5001436;28;20046;-73
2023/08/10 05:38:41;;;;;;;2.40;1.20;;;13.30;99.90;;;13.06;100.00;98243.28;5000188;28;20137;-73
2023/08/10 05:41:08;;;;;;;2.50;1.52;;;13.40;99.90;;;13.20;100.00;98243.53;5002140;28;20470;-73
2023/08/10 05:43:35;;;;;;;4.03;1.45;;;13.50;99.90;;;13.26;100.00;98245.06;5003865;28;20061;-73
2023/08/10 05:46:02;;;;;;;3.17;1.17;;;13.60;99.90;;;13.58;100.00;98235.84;5001595;28;20100;-72
2023/08/10 05:48:29;;;;;;;2.17;1.17;;;13.70;99.90;;;13.85;100.00;98225.13;4986844;28;20120;-72
2023/08/10 05:50:57;;;;;;;2.92;1.40;;;13.70;99.90;;;13.80;100.00;98226.16;4997999;28;20100;-73
2023/08/10 05:53:24;;;;;;;5.47;2.08;;;13.70;99.90;;;13.60;100.00;98219.22;5000627;28;20042;-73
2023/08/10 05:55:51;;;;;;;2.75;1.50;;;13.80;99.90;;;13.88;100.00;98215.38;5002862;28;20054;-73
2023/08/10 05:58:18;;;;;;;3.00;1.40;;;13.90;99.90;;;14.17;100.00;98215.78;5000707;28;20096;-72
2023/08/10 06:00:46;;;;;;;3.15;1.50;;;14.10;99.90;;;14.39;100.00;98208.63;5000760;28;20058;-73
2023/08/10 06:03:14;;;;;;;3.95;1.38;;;14.30;99.90;;;14.54;100.00;98207.06;5001248;28;20107;-72
2023/08/10 06:05:43;;;;;;;2.03;1.23;;;14.50;99.90;;;14.63;100.00;98208.38;5002298;28;20046;-73
2023/08/10 06:08:10;;;;;;;4.03;1.40;;;14.60;99.90;;;14.89;100.00;98206.25;5000597;28;20123;-73
2023/08/10 06:10:40;;;;;;;4.15;1.95;;;14.80;99.90;;;15.01;100.00;98209.09;5001163;28;20212;-72
2023/08/10 06:13:07;;;;;;;3.83;1.30;;;14.90;99.90;;;15.03;100.00;98193.34;5004013;28;20046;-72
2023/08/10 06:15:34;;;;;;;4.05;1.40;;;15.00;99.90;;;15.29;100.00;98201.63;4999220;28;20096;-73
2023/08/10 06:18:02;;;;;;;4.93;1.30;;;15.20;99.90;;;15.43;100.00;98197.34;4989390;28;20486;-72
2023/08/10 06:20:29;;;;;;;4.43;1.25;;;15.40;99.90;;;15.64;100.00;98189.28;5004581;28;20081;-72
2023/08/10 06:22:57;;;;;;;3.08;1.20;;;15.50;99.90;;;15.81;100.00;98186.66;5001157;28;20061;-72
2023/08/10 06:25:26;;;;;;;2.53;1.30;;;15.70;99.90;;;15.93;100.00;98190.38;5000934;28;20104;-72
2023/08/10 06:27:53;;;;;;;4.07;1.67;;;15.90;99.90;;;15.97;100.00;98197.13;5001921;28;20069;-72
2023/08/10 06:30:20;;;;;;;3.20;1.33;;;16.10;99.90;;;16.10;100.00;98202.53;4994134;28;20044;-72
2023/08/10 06:32:50;;;;;;;4.95;1.30;;;16.30;99.90;;;16.04;100.00;98198.50;4999467;28;20046;-73
2023/08/10 06:35:21;;;;;;;1.90;1.20;;;16.40;99.90;;;16.14;100.00;98208.47;4997690;28;20490;-72
2023/08/10 06:37:50;;;;;;;4.47;1.23;;;16.50;99.90;;;16.41;100.00;98204.28;4996744;28;20188;-73
2023/08/10 06:40:20;;;;;;;2.00;1.10;;;16.60;99.90;;;16.54;100.00;98193.97;5001933;28;20054;-72
2023/08/10 06:42:47;;;;;;;2.85;1.08;;;16.80;99.90;;;16.86;100.00;98194.78;5004665;28;20056;-72
2023/08/10 06:45:14;;;;;;;2.42;0.88;;;16.90;99.90;;;16.88;100.00;98182.41;5003467;28;20161;-72
2023/08/10 06:47:41;;;;;;;2.05;0.95;;;17.10;99.90;;;17.01;100.00;98177.28;5000049;28;20107;-72
2023/08/10 06:50:08;;;;;;;3.55;0.90;;;17.20;99.90;;;17.24;100.00;98185.56;4998979;28;22269;-73
2023/08/10 06:52:36;;;;;;;2.58;1.02;;;17.40;99.90;;;17.38;100.00;98182.97;5001712;28;20054;-72
2023/08/10 06:55:06;;;;;;;2.92;1.10;;;17.50;99.90;;;17.41;100.00;98182.78;5003162;28;20081;-72
2023/08/10 06:57:35;;;;;;;1.98;1.00;;;17.70;99.90;;;17.69;100.00;98181.06;5007405;28;20062;-73
2023/08/10 07:00:07;;;;;;;2.35;1.00;;;17.80;99.90;;;17.80;100.00;98170.75;5004186;28;20054;-72
2023/08/10 07:02:37;;;;;;;2.40;0.98;;;18.00;99.90;;;17.87;100.00;98163.38;5003593;28;20108;-72
2023/08/10 07:05:06;;;;;;;2.60;1.10;;;18.00;99.90;;;18.23;100.00;98159.34;5005077;28;20042;-73
2023/08/10 07:07:33;;;;;;;4.28;1.20;;;18.20;99.90;;;18.12;100.00;98157.41;5005430;28;20062;-73
2023/08/10 07:10:00;;;;;;;5.55;1.10;;;18.30;99.90;;;18.11;100.00;98166.22;5003712;28;20045;-72
2023/08/10 07:12:27;;;;;;;4.32;1.00;;;18.40;99.90;;;18.06;100.00;98157.78;4993783;28;20072;-73
2023/08/10 07:14:54;;;;;;;2.63;0.90;;;18.40;99.90;;;18.40;100.00;98161.69;5008200;28;20092;-73
2023/08/10 07:17:22;;;;;;;2.90;0.95;;;18.50;99.90;;;18.47;100.00;98167.41;5007493;28;20084;-72
2023/08/10 07:19:49;;;;;;;2.50;1.00;;;18.60;99.90;;;18.35;100.00;98156.75;4994772;28;20061;-72
2023/08/10 07:22:16;;;;;;;3.30;1.05;;;18.70;99.90;;;18.65;100.00;98157.47;5006497;28;20108;-73
2023/08/10 07:24:43;;;;;;;4.07;1.20;;;18.70;99.90;;;18.51;100.00;98153.97;5005786;28;20104;-73
2023/08/10 07:27:12;;;;;;;5.00;1.20;;;18.70;99.90;;;18.47;100.00;98162.97;5001955;28;20049;-72
2023/08/10 07:29:40;;;;;;;3.17;1.20;;;18.90;99.90;;;18.64;100.00;98155.81;4974049;28;20061;-73
2023/08/10 07:32:07;;;;;;;3.03;1.20;;;19.00;99.90;;;18.86;100.00;98160.47;5005185;28;20127;-73
2023/08/10 07:34:35;;;;;;;3.40;0.85;;;19.10;99.90;;;18.77;100.00;98152.28;5005847;28;20053;-71
2023/08/10 07:37:03;;;;;;;2.35;1.00;;;19.20;99.90;;;19.01;100.00;98156.81;5004743;28;20128;-72
2023/08/10 07:39:30;;;;;;;2.55;1.17;;;19.30;99.90;;;18.86;100.00;98142.94;4991374;28;20050;-72
2023/08/10 07:41:58;;;;;;;1.75;0.90;;;19.40;99.90;;;19.09;100.00;98154.53;5005828;28;20136;-72
2023/08/10 07:44:26;;;;;;;3.33;1.00;;;19.40;99.90;;;19.12;100.00;98151.69;5004704;28;20046;-72
2023/08/10 07:46:54;;;;;;;2.63;1.10;;;19.60;99.90;;;18.94;100.00;98147.66;5018808;28;20065;-73
2023/08/10 07:49:21;;;;;;;2.78;0.90;;;19.60;99.90;;;19.05;100.00;98149.59;5003921;28;20129;-73
2023/08/10 07:51:48;;;;;;;1.65;1.00;;;19.50;99.90;;;19.27;100.00;98148.94;5002728;28;20046;-72
2023/08/10 07:54:16;;;;;;;2.03;1.02;;;19.60;99.90;;;19.38;100.00;98141.13;4974324;28;20594;-71
2023/08/10 07:56:43;;;;;;;2.83;1.23;;;19.70;99.90;;;19.26;100.00;98152.53;5003947;28;20072;-72
2023/08/10 07:59:11;;;;;;;3.47;1.00;;;19.80;99.90;;;19.19;100.00;98154.72;5002219;28;20136;-72
2023/08/10 08:01:41;;;;;;;2.85;1.05;;;19.80;99.90;;;19.17;100.00;98149.56;5002204;28;20050;-71
2023/08/10 08:04:08;;;;;;;3.33;1.10;;;19.80;99.90;;;19.41;100.00;98146.22;5001310;28;20587;-72
2023/08/10 08:06:36;;;;;;;2.92;1.00;;;19.80;99.90;;;19.48;100.00;98143.97;4989453;28;20054;-71
2023/08/10 08:09:06;;;;;;;3.53;1.00;;;19.90;99.90;;;19.56;100.00;98137.22;5001134;28;20158;-71
2023/08/10 08:11:36;;;;;;;2.40;1.30;;;19.90;99.90;;;19.61;100.00;98131.63;5002687;28;20262;-72
2023/08/10 08:14:04;;;;;;;2.40;1.10;;;20.00;99.90;;;19.70;100.00;98132.81;5013530;28;20046;-72
2023/08/10 08:16:31;;;;;;;2.40;0.90;;;20.00;99.90;;;19.87;100.00;98132.44;5004501;28;20415;-72
2023/08/10 08:19:00;;;;;;;3.95;1.08;;;20.10;99.90;;;19.86;100.00;98128.13;5005382;28;20053;-72
2023/08/10 08:21:31;;;;;;;1.98;1.10;;;20.30;99.90;;;20.32;100.00;98130.06;4987351;28;20160;-72
2023/08/10 08:23:59;;;;;;;3.50;1.13;;;20.30;99.90;;;20.62;100.00;98129.63;5006042;28;20057;-72
2023/08/10 08:26:27;;;;;;;3.42;1.20;;;20.50;99.90;;;21.24;100.00;98117.03;5001797;28;20324;-73
2023/08/10 08:28:55;;;;;;;1.92;1.00;;;20.70;99.90;;;21.26;100.00;98112.47;5003100;28;20069;-73
2023/08/10 08:31:22;;;;;;;2.42;1.10;;;20.90;99.90;;;22.12;100.00;98114.44;5000281;28;20068;-72
2023/08/10 08:33:50;;;;;;;2.83;0.90;;;21.00;99.90;;;22.59;100.00;98114.16;4999034;28;20053;-73
2023/08/10 08:36:18;;;;;;;2.35;0.90;;;21.20;99.90;;;22.65;100.00;98124.22;5002758;28;20128;-72
2023/08/10 08:38:45;;;;;;;4.25;0.90;;;21.60;99.90;;;22.56;100.00;98132.94;5002127;28;20058;-70
2023/08/10 08:41:18;;;;;;;3.70;0.95;;;21.80;99.90;;;23.06;100.00;98135.81;5015107;28;20073;-72
2023/08/10 08:43:47;;;;;;;3.03;0.77;;;;;;;23.47;100.00;98135.88;4999636;28;20056;-73
2023/08/10 08:46:16;;;;;;;1.92;0.90;;;22.50;99.90;;;23.29;100.00;98133.03;4985206;28;20131;-73
2023/08/10 08:48:45;;;;;;;1.58;0.90;;;22.90;99.90;;;22.67;100.00;98135.53;5002935;28;20129;-73
2023/08/10 08:51:12;;;;;;;2.95;0.80;;;23.40;99.90;;;23.82;100.00;98126.69;5000767;28;20100;-73
2023/08/10 08:53:40;;;;;;;2.25;0.80;;;24.00;99.90;;;24.62;100.00;98128.34;4996628;28;20617;-73
2023/08/10 08:56:08;;;;;;;1.90;0.77;;;25.00;99.90;;;24.74;100.00;98116.59;5001071;28;20381;-72
2023/08/10 08:58:35;;;;;;;3.78;1.13;;;25.90;99.90;;;25.17;100.00;98117.06;4997636;28;20522;-73
2023/08/10 09:01:03;;;;;;;2.22;1.08;;;26.50;99.90;;;24.65;100.00;98112.13;5000697;28;20042;-73
2023/08/10 09:03:30;;;;;;;2.63;0.88;;;26.90;99.90;;;24.72;100.00;98112.41;5016305;28;20042;-72
2023/08/10 09:05:57;;;;;;;1.50;0.80;;;27.00;99.90;;;25.55;100.00;98105.50;4987045;28;20050;-73
2023/08/10 09:08:25;;;;;;;4.30;0.80;;;27.40;99.90;;;25.77;100.00;98098.09;5000069;28;20052;-72
2023/08/10 09:10:53;;;;;;;4.78;0.70;;;27.80;99.90;;;25.84;100.00;98089.41;5002357;28;20052;-71
2023/08/10 09:13:23;;;;;;;2.50;0.70;;;28.40;98.80;;;26.67;100.00;98088.38;5002315;28;20173;-74
2023/08/10 09:16:14;;;;;;;1.25;0.70;;;28.90;97.70;;;26.17;100.00;98087.09;5001490;28;20483;-74
2023/08/10 09:18:45;;;;;;;1.95;0.80;;;28.80;96.80;;;25.08;100.00;98084.25;5001133;28;20164;-73
2023/08/10 09:21:23;;;;;;;1.48;0.65;;;28.20;95.70;;;26.94;100.00;98076.78;5002818;28;20046;-74
2023/08/10 09:23:56;;;;;;;3.10;0.85;;;27.40;94.70;;;27.32;100.00;98064.84;4998662;28;20052;-73
2023/08/10 09:26:24;;;;;;;1.73;0.70;;;26.60;95.60;;;27.48;100.00;98064.09;5015982;28;20046;-74
2023/08/10 09:28:51;;;;;;;1.88;0.70;;;26.50;94.90;;;26.81;100.00;98066.50;5002055;28;20085;-73
2023/08/10 09:31:27;;;;;;;3.20;0.70;;;27.30;96.60;;;26.87;100.00;98073.06;4989184;28;20049;-72
2023/08/10 09:33:59;;;;;;;2.22;0.70;;;28.20;97.00;;;26.73;100.00;98082.47;5004656;28;20498;-73
2023/08/10 09:36:29;;;;;;;2.38;0.80;;;28.30;95.10;;;26.45;100.00;98079.84;5002626;28;20060;-74
2023/08/10 09:38:57;;;;;;;2.38;0.73;;;27.70;95.00;;;26.35;100.00;98084.44;4986948;28;20133;-73
2023/08/10 09:41:29;;;;;;;1.38;0.75;;;27.90;95.30;;;27.15;100.00;98072.91;4983552;28;20054;-74
2023/08/10 09:43:56;;;;;;;2.97;0.60;;;27.90;95.00;;;26.78;100.00;98063.34;4997739;28;20077;-71
2023/08/10 09:46:25;;;;;;;4.25;0.90;;;28.50;94.60;;;26.92;100.00;98068.91;5000557;28;20522;-72
2023/08/10 09:48:53;;;;;;;4.38;1.08;;;28.50;93.50;;;27.62;100.00;98065.31;4986568;28;20054;-73
2023/08/10 09:51:20;;;;;;;3.60;0.70;;;28.60;94.00;;;28.11;100.00;98065.44;4988643;28;20046;-72
2023/08/10 09:53:48;;;;;;;3.33;0.68;;;28.90;93.50;;;27.52;100.00;98065.41;5005736;28;20521;-72
2023/08/10 09:56:16;;;;;;;2.90;0.75;;;29.20;93.70;;;27.58;100.00;98071.13;5001463;28;20137;-72
2023/08/10 09:58:43;;;;;;;2.05;0.70;;;29.30;93.50;;;27.40;100.00;98064.03;5004006;28;20125;-72
2023/08/10 10:01:10;;;;;;;1.88;0.80;;;29.40;92.30;;;27.36;100.00;98069.84;4998958;28;20101;-74
2023/08/10 10:03:43;;;;;;;4.13;0.70;;;29.40;91.70;;;27.91;100.00;98067.56;5002276;28;20057;-73
2023/08/10 10:06:14;;;;;;;2.08;0.70;;;27.90;91.90;;;27.09;100.00;98069.00;4999482;28;20045;-72
2023/08/10 10:08:51;;;;;;;2.45;0.63;;;27.60;92.50;;;27.35;100.00;98069.03;5001089;28;20054;-73
2023/08/10 10:11:21;;;;;;;1.65;0.70;;;27.90;93.20;;;27.54;100.00;98065.25;5001437;28;20049;-72
2023/08/10 10:13:48;;;;;;;2.65;0.60;;;28.60;92.70;;;28.31;100.00;98067.81;5000512;28;20161;-72
2023/08/10 10:16:16;;;;;;;2.28;0.60;;;28.80;92.10;;;28.82;100.00;98059.63;4998125;28;20042;-73
2023/08/10 10:18:44;;;;;;;1.50;0.60;;;29.10;92.50;;;29.34;100.00;98064.53;4995068;28;20053;-73
2023/08/10 10:21:11;;;;;;;3.20;0.80;;;29.50;93.00;;;29.67;100.00;98062.53;4997146;28;20046;-74